sensor_id;sensor_type;location;lat;lon;timestamp;temperature;humidity
73277;DHT22;61501;43.316;5.372;2023-12-22T00:01:41;12.80;99.90
73277;DHT22;61501;43.316;5.372;2023-12-22T00:04:07;12.70;99.90
73277;DHT22;61501;43.316;5.372;2023-12-22T00:06:32;12.80;99.90
73277;DHT22;61501;43.316;5.372;2023-12-22T00:08:58;12.80;99.90
73277;DHT22;61501;43.316;5.372;2023-12-22T00:11:24;12.70;99.90
73277;DHT22;61501;43.316;5.372;2023-12-22T00:13:49;12.70;99.90
73277;DHT22;61501;43.316;5.372;2023-12-22T00:16:15;12.70;99.90
73277;DHT22;61501;43.316;5.372;2023-12-22T00:18:41;12.70;99.90
73277;DHT22;61501;43.316;5.372;2023-12-22T00:21:10;12.80;99.90
73277;DHT22;61501;43.316;5.372;2023-12-22T00:23:36;12.80;99.90
73277;DHT22;61501;43.316;5.372;2023-12-22T00:26:03;12.90;99.90
73277;DHT22;61501;43.316;5.372;2023-12-22T00:28:29;12.80;99.90
73277;DHT22;61501;43.316;5.372;2023-12-22T00:30:57;12.90;99.90
73277;DHT22;61501;43.316;5.372;2023-12-22T00:33:23;12.90;99.90
73277;DHT22;61501;43.316;5.372;2023-12-22T00:35:49;12.90;99.90
73277;DHT22;61501;43.316;5.372;2023-12-22T00:38:14;12.90;99.90
73277;DHT22;61501;43.316;5.372;2023-12-22T00:40:40;12.90;99.90
73277;DHT22;61501;43.316;5.372;2023-12-22T00:43:06;12.90;99.90
73277;DHT22;61501;43.316;5.372;2023-12-22T00:45:31;12.90;99.90
73277;DHT22;61501;43.316;5.372;2023-12-22T00:47:57;13.00;99.90
73277;DHT22;61501;43.316;5.372;2023-12-22T00:50:23;13.00;99.90
73277;DHT22;61501;43.316;5.372;2023-12-22T00:53:18;12.90;99.90
73277;DHT22;61501;43.316;5.372;2023-12-22T00:55:44;13.00;99.90
73277;DHT22;61501;43.316;5.372;2023-12-22T00:58:09;13.00;99.90
73277;DHT22;61501;43.316;5.372;2023-12-22T01:00:35;13.00;99.90
73277;DHT22;61501;43.316;5.372;2023-12-22T01:03:00;13.00;99.90
73277;DHT22;61501;43.316;5.372;2023-12-22T01:05:26;13.00;99.90
73277;DHT22;61501;43.316;5.372;2023-12-22T01:07:51;13.10;99.90
73277;DHT22;61501;43.316;5.372;2023-12-22T01:10:17;13.10;99.90
73277;DHT22;61501;43.316;5.372;2023-12-22T01:12:43;13.10;99.90
73277;DHT22;61501;43.316;5.372;2023-12-22T01:15:09;13.10;99.90
73277;DHT22;61501;43.316;5.372;2023-12-22T01:17:35;13.10;99.90
73277;DHT22;61501;43.316;5.372;2023-12-22T01:20:00;13.10;99.90
73277;DHT22;61501;43.316;5.372;2023-12-22T01:22:26;13.10;99.90
73277;DHT22;61501;43.316;5.372;2023-12-22T01:24:51;13.20;99.90
73277;DHT22;61501;43.316;5.372;2023-12-22T01:27:17;13.20;99.90
73277;DHT22;61501;43.316;5.372;2023-12-22T01:29:43;13.20;99.90
73277;DHT22;61501;43.316;5.372;2023-12-22T01:32:09;13.20;99.90
73277;DHT22;61501;43.316;5.372;2023-12-22T01:34:34;13.20;99.90
73277;DHT22;61501;43.316;5.372;2023-12-22T01:37:00;13.20;99.90
73277;DHT22;61501;43.316;5.372;2023-12-22T01:39:25;13.20;99.90
73277;DHT22;61501;43.316;5.372;2023-12-22T01:41:51;13.20;99.90
73277;DHT22;61501;43.316;5.372;2023-12-22T01:44:17;13.20;99.90
73277;DHT22;61501;43.316;5.372;2023-12-22T01:46:42;13.30;99.90
73277;DHT22;61501;43.316;5.372;2023-12-22T01:49:08;13.30;99.90
73277;DHT22;61501;43.316;5.372;2023-12-22T01:51:36;13.40;99.90
73277;DHT22;61501;43.316;5.372;2023-12-22T01:54:02;13.30;99.90
73277;DHT22;61501;43.316;5.372;2023-12-22T01:56:30;13.30;99.90
73277;DHT22;61501;43.316;5.372;2023-12-22T01:59:00;13.20;99.90
73277;DHT22;61501;43.316;5.372;2023-12-22T02:01:28;13.20;99.90
73277;DHT22;61501;43.316;5.372;2023-12-22T02:03:54;13.20;99.90
73277;DHT22;61501;43.316;5.372;2023-12-22T02:06:20;13.10;99.90
73277;DHT22;61501;43.316;5.372;2023-12-22T02:08:47;13.10;99.90
73277;DHT22;61501;43.316;5.372;2023-12-22T02:11:14;13.10;99.90
73277;DHT22;61501;43.316;5.372;2023-12-22T02:13:40;13.10;99.90
73277;DHT22;61501;43.316;5.372;2023-12-22T02:16:25;12.90;99.90
73277;DHT22;61501;43.316;5.372;2023-12-22T02:18:55;12.90;99.90
73277;DHT22;61501;43.316;5.372;2023-12-22T02:21:21;12.80;99.90
73277;DHT22;61501;43.316;5.372;2023-12-22T02:23:50;12.90;99.90
73277;DHT22;61501;43.316;5.372;2023-12-22T02:26:33;12.80;99.90
73277;DHT22;61501;43.316;5.372;2023-12-22T02:29:01;12.80;99.90
73277;DHT22;61501;43.316;5.372;2023-12-22T02:31:36;12.80;99.90
73277;DHT22;61501;43.316;5.372;2023-12-22T02:34:07;12.80;99.90
73277;DHT22;61501;43.316;5.372;2023-12-22T02:36:34;12.80;99.90
73277;DHT22;61501;43.316;5.372;2023-12-22T02:39:02;12.70;99.90
73277;DHT22;61501;43.316;5.372;2023-12-22T02:41:28;12.70;99.90
73277;DHT22;61501;43.316;5.372;2023-12-22T02:43:54;12.70;99.90
73277;DHT22;61501;43.316;5.372;2023-12-22T02:46:20;12.70;99.90
73277;DHT22;61501;43.316;5.372;2023-12-22T02:48:45;12.80;99.90
73277;DHT22;61501;43.316;5.372;2023-12-22T02:51:11;12.80;99.90
73277;DHT22;61501;43.316;5.372;2023-12-22T02:53:36;12.80;99.90
73277;DHT22;61501;43.316;5.372;2023-12-22T02:56:02;12.80;99.90
73277;DHT22;61501;43.316;5.372;2023-12-22T02:58:28;12.80;99.90
73277;DHT22;61501;43.316;5.372;2023-12-22T03:00:53;12.80;99.90
73277;DHT22;61501;43.316;5.372;2023-12-22T03:03:19;12.80;99.90
73277;DHT22;61501;43.316;5.372;2023-12-22T03:05:45;12.80;99.90
73277;DHT22;61501;43.316;5.372;2023-12-22T03:08:10;12.80;99.90
73277;DHT22;61501;43.316;5.372;2023-12-22T03:10:36;12.80;99.90
73277;DHT22;61501;43.316;5.372;2023-12-22T03:13:01;12.80;99.90
73277;DHT22;61501;43.316;5.372;2023-12-22T03:15:27;12.80;99.90
73277;DHT22;61501;43.316;5.372;2023-12-22T03:17:53;12.90;99.90
73277;DHT22;61501;43.316;5.372;2023-12-22T03:20:18;12.90;99.90
73277;DHT22;61501;43.316;5.372;2023-12-22T03:22:44;12.90;99.90
73277;DHT22;61501;43.316;5.372;2023-12-22T03:25:10;12.90;99.90
73277;DHT22;61501;43.316;5.372;2023-12-22T03:27:35;12.90;99.90
73277;DHT22;61501;43.316;5.372;2023-12-22T03:30:01;12.90;99.90
73277;DHT22;61501;43.316;5.372;2023-12-22T03:32:27;12.90;99.90
73277;DHT22;61501;43.316;5.372;2023-12-22T03:34:53;12.90;99.90
73277;DHT22;61501;43.316;5.372;2023-12-22T03:37:18;12.90;99.90
73277;DHT22;61501;43.316;5.372;2023-12-22T03:39:44;12.90;99.90
73277;DHT22;61501;43.316;5.372;2023-12-22T03:42:10;12.90;99.90
73277;DHT22;61501;43.316;5.372;2023-12-22T03:44:35;12.80;99.90
73277;DHT22;61501;43.316;5.372;2023-12-22T03:47:01;12.90;99.90
73277;DHT22;61501;43.316;5.372;2023-12-22T03:49:26;12.80;99.90
73277;DHT22;61501;43.316;5.372;2023-12-22T03:51:52;12.90;99.90
73277;DHT22;61501;43.316;5.372;2023-12-22T03:54:17;12.90;99.90
73277;DHT22;61501;43.316;5.372;2023-12-22T03:56:43;12.90;99.90
73277;DHT22;61501;43.316;5.372;2023-12-22T03:59:09;12.90;99.90
73277;DHT22;61501;43.316;5.372;2023-12-22T04:01:35;12.80;99.90
73277;DHT22;61501;43.316;5.372;2023-12-22T04:04:00;12.80;99.90
73277;DHT22;61501;43.316;5.372;2023-12-22T04:06:26;12.80;99.90
73277;DHT22;61501;43.316;5.372;2023-12-22T04:08:52;12.80;99.90
73277;DHT22;61501;43.316;5.372;2023-12-22T04:11:18;12.80;99.90
73277;DHT22;61501;43.316;5.372;2023-12-22T04:13:43;12.80;99.90
73277;DHT22;61501;43.316;5.372;2023-12-22T04:16:09;12.80;99.90
73277;DHT22;61501;43.316;5.372;2023-12-22T04:18:35;12.70;99.90
73277;DHT22;61501;43.316;5.372;2023-12-22T04:21:00;12.70;99.90
73277;DHT22;61501;43.316;5.372;2023-12-22T04:23:26;12.70;99.90
73277;DHT22;61501;43.316;5.372;2023-12-22T04:25:51;12.70;99.90
73277;DHT22;61501;43.316;5.372;2023-12-22T04:28:17;12.80;99.90
73277;DHT22;61501;43.316;5.372;2023-12-22T04:30:43;12.90;99.90
73277;DHT22;61501;43.316;5.372;2023-12-22T04:33:08;12.90;99.90
73277;DHT22;61501;43.316;5.372;2023-12-22T04:35:34;12.90;99.90
73277;DHT22;61501;43.316;5.372;2023-12-22T04:38:00;13.00;99.90
73277;DHT22;61501;43.316;5.372;2023-12-22T04:40:25;13.00;99.90
73277;DHT22;61501;43.316;5.372;2023-12-22T04:42:53;13.00;99.90
73277;DHT22;61501;43.316;5.372;2023-12-22T04:45:19;13.10;99.90
73277;DHT22;61501;43.316;5.372;2023-12-22T04:47:44;13.10;99.90
73277;DHT22;61501;43.316;5.372;2023-12-22T04:50:10;13.10;99.90
73277;DHT22;61501;43.316;5.372;2023-12-22T04:52:36;13.10;99.90
73277;DHT22;61501;43.316;5.372;2023-12-22T04:55:01;13.00;99.90
73277;DHT22;61501;43.316;5.372;2023-12-22T04:57:27;13.10;99.90
73277;DHT22;61501;43.316;5.372;2023-12-22T04:59:52;13.10;99.90
73277;DHT22;61501;43.316;5.372;2023-12-22T05:02:18;13.20;99.90
73277;DHT22;61501;43.316;5.372;2023-12-22T05:04:44;13.20;99.90
73277;DHT22;61501;43.316;5.372;2023-12-22T05:07:09;13.10;99.90
73277;DHT22;61501;43.316;5.372;2023-12-22T05:09:36;13.10;99.90
73277;DHT22;61501;43.316;5.372;2023-12-22T05:12:02;13.10;99.90
73277;DHT22;61501;43.316;5.372;2023-12-22T05:14:27;13.10;99.90
73277;DHT22;61501;43.316;5.372;2023-12-22T05:16:53;13.10;99.90
73277;DHT22;61501;43.316;5.372;2023-12-22T05:19:21;13.00;99.90
73277;DHT22;61501;43.316;5.372;2023-12-22T05:21:47;12.90;99.90
73277;DHT22;61501;43.316;5.372;2023-12-22T05:24:14;12.90;99.90
73277;DHT22;61501;43.316;5.372;2023-12-22T05:26:39;12.90;99.90
73277;DHT22;61501;43.316;5.372;2023-12-22T05:29:05;13.00;99.90
73277;DHT22;61501;43.316;5.372;2023-12-22T05:31:33;13.10;99.90
73277;DHT22;61501;43.316;5.372;2023-12-22T05:33:59;13.00;99.90
73277;DHT22;61501;43.316;5.372;2023-12-22T05:36:25;12.90;99.90
73277;DHT22;61501;43.316;5.372;2023-12-22T05:38:51;12.90;99.90
73277;DHT22;61501;43.316;5.372;2023-12-22T05:41:16;12.80;99.90
73277;DHT22;61501;43.316;5.372;2023-12-22T05:43:42;12.90;99.90
73277;DHT22;61501;43.316;5.372;2023-12-22T05:46:08;12.90;99.90
73277;DHT22;61501;43.316;5.372;2023-12-22T05:48:35;12.80;99.90
73277;DHT22;61501;43.316;5.372;2023-12-22T05:51:01;12.90;99.90
73277;DHT22;61501;43.316;5.372;2023-12-22T05:53:28;12.90;99.90
73277;DHT22;61501;43.316;5.372;2023-12-22T05:55:54;12.90;99.90
73277;DHT22;61501;43.316;5.372;2023-12-22T05:58:20;12.90;99.90
73277;DHT22;61501;43.316;5.372;2023-12-22T06:00:47;12.80;99.90
73277;DHT22;61501;43.316;5.372;2023-12-22T06:03:13;12.80;99.90
73277;DHT22;61501;43.316;5.372;2023-12-22T06:05:39;12.80;99.90
73277;DHT22;61501;43.316;5.372;2023-12-22T06:08:05;12.80;99.90
73277;DHT22;61501;43.316;5.372;2023-12-22T06:10:31;12.80;99.90
73277;DHT22;61501;43.316;5.372;2023-12-22T06:12:56;13.00;99.90
73277;DHT22;61501;43.316;5.372;2023-12-22T06:15:23;13.00;99.90
73277;DHT22;61501;43.316;5.372;2023-12-22T06:17:49;13.00;99.90
73277;DHT22;61501;43.316;5.372;2023-12-22T06:20:15;13.00;99.90
73277;DHT22;61501;43.316;5.372;2023-12-22T06:22:40;13.00;99.90
73277;DHT22;61501;43.316;5.372;2023-12-22T06:25:06;13.10;99.90
73277;DHT22;61501;43.316;5.372;2023-12-22T06:27:33;13.10;99.90
73277;DHT22;61501;43.316;5.372;2023-12-22T06:29:59;13.00;99.90
73277;DHT22;61501;43.316;5.372;2023-12-22T06:32:25;13.00;99.90
73277;DHT22;61501;43.316;5.372;2023-12-22T06:34:50;13.00;99.90
73277;DHT22;61501;43.316;5.372;2023-12-22T06:37:16;13.00;99.90
73277;DHT22;61501;43.316;5.372;2023-12-22T06:39:42;13.10;99.90
73277;DHT22;61501;43.316;5.372;2023-12-22T06:42:07;13.00;99.90
73277;DHT22;61501;43.316;5.372;2023-12-22T06:44:37;13.00;99.90
73277;DHT22;61501;43.316;5.372;2023-12-22T06:47:03;13.00;99.90
73277;DHT22;61501;43.316;5.372;2023-12-22T06:49:28;13.00;99.90
73277;DHT22;61501;43.316;5.372;2023-12-22T06:52:03;13.00;99.90
73277;DHT22;61501;43.316;5.372;2023-12-22T06:54:29;12.90;99.90
73277;DHT22;61501;43.316;5.372;2023-12-22T06:56:54;12.90;99.90
73277;DHT22;61501;43.316;5.372;2023-12-22T06:59:20;12.90;99.90
73277;DHT22;61501;43.316;5.372;2023-12-22T07:01:46;12.80;99.90
73277;DHT22;61501;43.316;5.372;2023-12-22T07:04:11;12.90;99.90
73277;DHT22;61501;43.316;5.372;2023-12-22T07:06:37;13.00;99.90
73277;DHT22;61501;43.316;5.372;2023-12-22T07:11:42;13.00;99.90
73277;DHT22;61501;43.316;5.372;2023-12-22T07:14:08;13.10;99.90
73277;DHT22;61501;43.316;5.372;2023-12-22T07:16:35;13.00;99.90
73277;DHT22;61501;43.316;5.372;2023-12-22T07:19:01;13.00;99.90
73277;DHT22;61501;43.316;5.372;2023-12-22T07:21:26;13.00;99.90
73277;DHT22;61501;43.316;5.372;2023-12-22T07:23:52;13.00;99.90
73277;DHT22;61501;43.316;5.372;2023-12-22T07:26:18;13.10;99.90
73277;DHT22;61501;43.316;5.372;2023-12-22T07:28:43;13.00;99.90
73277;DHT22;61501;43.316;5.372;2023-12-22T07:31:09;12.90;99.90
73277;DHT22;61501;43.316;5.372;2023-12-22T07:33:35;12.90;99.90
73277;DHT22;61501;43.316;5.372;2023-12-22T07:36:01;12.90;99.90
73277;DHT22;61501;43.316;5.372;2023-12-22T07:38:26;12.90;99.90
73277;DHT22;61501;43.316;5.372;2023-12-22T07:40:52;13.00;99.90
73277;DHT22;61501;43.316;5.372;2023-12-22T07:43:18;13.10;99.90
73277;DHT22;61501;43.316;5.372;2023-12-22T07:45:43;13.20;99.90
73277;DHT22;61501;43.316;5.372;2023-12-22T07:48:09;13.10;99.90
73277;DHT22;61501;43.316;5.372;2023-12-22T07:50:35;13.10;99.90
73277;DHT22;61501;43.316;5.372;2023-12-22T07:53:01;13.40;99.90
73277;DHT22;61501;43.316;5.372;2023-12-22T07:55:27;13.40;99.90
73277;DHT22;61501;43.316;5.372;2023-12-22T07:57:52;13.20;99.90
73277;DHT22;61501;43.316;5.372;2023-12-22T08:00:18;13.30;99.90
73277;DHT22;61501;43.316;5.372;2023-12-22T08:02:44;13.20;99.90
73277;DHT22;61501;43.316;5.372;2023-12-22T08:05:11;13.30;99.90
73277;DHT22;61501;43.316;5.372;2023-12-22T08:07:36;13.30;99.90
73277;DHT22;61501;43.316;5.372;2023-12-22T08:10:04;13.30;99.90
73277;DHT22;61501;43.316;5.372;2023-12-22T08:12:29;13.30;99.90
73277;DHT22;61501;43.316;5.372;2023-12-22T08:14:57;13.30;99.90
73277;DHT22;61501;43.316;5.372;2023-12-22T08:17:23;13.40;99.90
73277;DHT22;61501;43.316;5.372;2023-12-22T08:19:50;13.40;99.90
73277;DHT22;61501;43.316;5.372;2023-12-22T08:22:16;13.50;99.90
73277;DHT22;61501;43.316;5.372;2023-12-22T08:24:42;13.50;99.90
73277;DHT22;61501;43.316;5.372;2023-12-22T08:27:08;13.50;99.90
73277;DHT22;61501;43.316;5.372;2023-12-22T08:29:34;13.50;99.90
73277;DHT22;61501;43.316;5.372;2023-12-22T08:32:00;13.60;99.90
73277;DHT22;61501;43.316;5.372;2023-12-22T08:34:26;13.60;99.90
73277;DHT22;61501;43.316;5.372;2023-12-22T08:36:52;13.70;99.90
73277;DHT22;61501;43.316;5.372;2023-12-22T08:39:17;13.70;99.90
73277;DHT22;61501;43.316;5.372;2023-12-22T08:41:44;13.80;99.90
73277;DHT22;61501;43.316;5.372;2023-12-22T08:44:10;13.80;99.90
73277;DHT22;61501;43.316;5.372;2023-12-22T08:46:35;13.80;99.90
73277;DHT22;61501;43.316;5.372;2023-12-22T08:49:01;13.80;99.90
73277;DHT22;61501;43.316;5.372;2023-12-22T08:51:28;13.80;99.90
73277;DHT22;61501;43.316;5.372;2023-12-22T08:53:54;13.80;99.90
73277;DHT22;61501;43.316;5.372;2023-12-22T08:56:21;13.80;99.90
73277;DHT22;61501;43.316;5.372;2023-12-22T08:58:47;13.80;99.90
73277;DHT22;61501;43.316;5.372;2023-12-22T09:01:16;13.80;99.90
73277;DHT22;61501;43.316;5.372;2023-12-22T09:03:42;13.70;99.90
73277;DHT22;61501;43.316;5.372;2023-12-22T09:06:15;13.80;99.90
73277;DHT22;61501;43.316;5.372;2023-12-22T09:08:44;13.80;99.90
73277;DHT22;61501;43.316;5.372;2023-12-22T09:11:16;13.80;99.90
73277;DHT22;61501;43.316;5.372;2023-12-22T09:13:42;13.80;99.90
73277;DHT22;61501;43.316;5.372;2023-12-22T09:16:09;13.80;99.90
73277;DHT22;61501;43.316;5.372;2023-12-22T09:18:35;13.80;99.90
73277;DHT22;61501;43.316;5.372;2023-12-22T09:21:01;13.80;99.90
73277;DHT22;61501;43.316;5.372;2023-12-22T09:23:28;13.80;99.90
73277;DHT22;61501;43.316;5.372;2023-12-22T09:25:54;13.80;99.90
73277;DHT22;61501;43.316;5.372;2023-12-22T09:28:21;13.80;99.90
73277;DHT22;61501;43.316;5.372;2023-12-22T09:30:46;13.80;99.90
73277;DHT22;61501;43.316;5.372;2023-12-22T09:33:12;13.70;99.90
73277;DHT22;61501;43.316;5.372;2023-12-22T09:35:38;13.70;99.90
73277;DHT22;61501;43.316;5.372;2023-12-22T09:38:08;13.70;99.90
73277;DHT22;61501;43.316;5.372;2023-12-22T09:40:35;13.70;99.90
73277;DHT22;61501;43.316;5.372;2023-12-22T09:43:02;13.70;99.90
73277;DHT22;61501;43.316;5.372;2023-12-22T09:45:30;13.70;99.90
73277;DHT22;61501;43.316;5.372;2023-12-22T09:47:56;13.70;99.90
73277;DHT22;61501;43.316;5.372;2023-12-22T09:50:24;13.70;99.90
73277;DHT22;61501;43.316;5.372;2023-12-22T09:52:51;13.70;99.90
73277;DHT22;61501;43.316;5.372;2023-12-22T09:55:17;13.70;99.90
73277;DHT22;61501;43.316;5.372;2023-12-22T09:57:45;13.80;99.90
73277;DHT22;61501;43.316;5.372;2023-12-22T10:00:12;13.80;99.90
73277;DHT22;61501;43.316;5.372;2023-12-22T10:02:39;14.00;99.90
73277;DHT22;61501;43.316;5.372;2023-12-22T10:05:05;14.00;99.90
73277;DHT22;61501;43.316;5.372;2023-12-22T10:07:31;14.00;99.90
73277;DHT22;61501;43.316;5.372;2023-12-22T10:09:59;14.00;99.90
73277;DHT22;61501;43.316;5.372;2023-12-22T10:12:27;14.10;99.90
73277;DHT22;61501;43.316;5.372;2023-12-22T10:14:53;14.10;99.90
73277;DHT22;61501;43.316;5.372;2023-12-22T10:17:19;14.10;99.90
73277;DHT22;61501;43.316;5.372;2023-12-22T10:19:45;14.10;99.90
73277;DHT22;61501;43.316;5.372;2023-12-22T10:22:11;14.10;99.90
73277;DHT22;61501;43.316;5.372;2023-12-22T10:24:38;14.10;99.90
73277;DHT22;61501;43.316;5.372;2023-12-22T10:27:14;14.10;99.90
73277;DHT22;61501;43.316;5.372;2023-12-22T10:29:41;14.10;99.90
73277;DHT22;61501;43.316;5.372;2023-12-22T10:32:08;14.00;99.90
73277;DHT22;61501;43.316;5.372;2023-12-22T10:34:34;14.00;99.90
73277;DHT22;61501;43.316;5.372;2023-12-22T10:37:00;14.00;99.90
73277;DHT22;61501;43.316;5.372;2023-12-22T10:39:30;14.00;99.90
73277;DHT22;61501;43.316;5.372;2023-12-22T10:41:57;14.10;99.90
73277;DHT22;61501;43.316;5.372;2023-12-22T10:44:29;14.20;99.90
73277;DHT22;61501;43.316;5.372;2023-12-22T10:46:56;14.30;99.90
73277;DHT22;61501;43.316;5.372;2023-12-22T10:49:22;14.40;99.90
73277;DHT22;61501;43.316;5.372;2023-12-22T10:51:49;14.50;99.90
73277;DHT22;61501;43.316;5.372;2023-12-22T10:54:16;14.60;99.90
73277;DHT22;61501;43.316;5.372;2023-12-22T10:56:42;14.60;99.90
73277;DHT22;61501;43.316;5.372;2023-12-22T10:59:09;14.70;99.90
73277;DHT22;61501;43.316;5.372;2023-12-22T11:01:36;14.80;99.90
73277;DHT22;61501;43.316;5.372;2023-12-22T11:04:07;14.80;99.90
73277;DHT22;61501;43.316;5.372;2023-12-22T11:06:37;14.80;99.90
73277;DHT22;61501;43.316;5.372;2023-12-22T11:09:07;14.80;99.90
73277;DHT22;61501;43.316;5.372;2023-12-22T11:11:38;14.80;99.90
73277;DHT22;61501;43.316;5.372;2023-12-22T11:14:05;14.80;99.90
73277;DHT22;61501;43.316;5.372;2023-12-22T11:16:33;14.80;99.90
73277;DHT22;61501;43.316;5.372;2023-12-22T11:19:01;14.80;99.90
73277;DHT22;61501;43.316;5.372;2023-12-22T11:21:27;14.90;99.90
73277;DHT22;61501;43.316;5.372;2023-12-22T11:23:54;14.90;99.90
73277;DHT22;61501;43.316;5.372;2023-12-22T11:26:21;15.00;99.90
73277;DHT22;61501;43.316;5.372;2023-12-22T11:28:48;15.00;99.90
73277;DHT22;61501;43.316;5.372;2023-12-22T11:31:15;15.00;99.90
73277;DHT22;61501;43.316;5.372;2023-12-22T11:33:45;15.00;99.20
73277;DHT22;61501;43.316;5.372;2023-12-22T11:36:12;15.00;98.80
73277;DHT22;61501;43.316;5.372;2023-12-22T11:38:42;15.10;98.40
73277;DHT22;61501;43.316;5.372;2023-12-22T11:41:19;15.10;98.00
73277;DHT22;61501;43.316;5.372;2023-12-22T11:43:47;15.20;98.10
73277;DHT22;61501;43.316;5.372;2023-12-22T11:46:16;16.40;95.60
73277;DHT22;61501;43.316;5.372;2023-12-22T11:48:50;21.30;76.50
73277;DHT22;61501;43.316;5.372;2023-12-22T11:51:17;22.10;66.70
73277;DHT22;61501;43.316;5.372;2023-12-22T11:53:43;21.70;65.60
73277;DHT22;61501;43.316;5.372;2023-12-22T11:56:10;21.50;65.10
73277;DHT22;61501;43.316;5.372;2023-12-22T12:01:11;22.00;63.50
73277;DHT22;61501;43.316;5.372;2023-12-22T12:03:42;22.50;60.20
73277;DHT22;61501;43.316;5.372;2023-12-22T12:08:50;21.00;61.60
73277;DHT22;61501;43.316;5.372;2023-12-22T12:11:17;21.20;62.90
73277;DHT22;61501;43.316;5.372;2023-12-22T12:13:45;21.70;60.70
73277;DHT22;61501;43.316;5.372;2023-12-22T12:16:12;21.50;60.50
73277;DHT22;61501;43.316;5.372;2023-12-22T12:18:39;20.80;65.00
73277;DHT22;61501;43.316;5.372;2023-12-22T12:21:08;21.40;61.20
73277;DHT22;61501;43.316;5.372;2023-12-22T12:23:35;21.20;61.00
73277;DHT22;61501;43.316;5.372;2023-12-22T12:26:01;22.10;58.60
73277;DHT22;61501;43.316;5.372;2023-12-22T12:28:29;22.30;58.20
73277;DHT22;61501;43.316;5.372;2023-12-22T12:31:04;22.50;57.80
73277;DHT22;61501;43.316;5.372;2023-12-22T12:33:30;20.80;61.50
73277;DHT22;61501;43.316;5.372;2023-12-22T12:35:58;20.20;65.10
73277;DHT22;61501;43.316;5.372;2023-12-22T12:40:58;20.80;64.30
73277;DHT22;61501;43.316;5.372;2023-12-22T12:43:24;21.30;62.70
73277;DHT22;61501;43.316;5.372;2023-12-22T12:45:51;19.70;66.70
73277;DHT22;61501;43.316;5.372;2023-12-22T12:48:17;18.60;70.40
73277;DHT22;61501;43.316;5.372;2023-12-22T12:50:43;18.00;72.60
73277;DHT22;61501;43.316;5.372;2023-12-22T12:53:09;17.80;73.50
73277;DHT22;61501;43.316;5.372;2023-12-22T12:55:35;18.30;73.10
73277;DHT22;61501;43.316;5.372;2023-12-22T12:58:00;19.00;70.20
73277;DHT22;61501;43.316;5.372;2023-12-22T13:00:31;19.70;67.90
73277;DHT22;61501;43.316;5.372;2023-12-22T13:03:00;19.30;67.50
73277;DHT22;61501;43.316;5.372;2023-12-22T13:05:28;19.10;69.10
73277;DHT22;61501;43.316;5.372;2023-12-22T13:08:12;18.70;69.80
73277;DHT22;61501;43.316;5.372;2023-12-22T13:10:39;18.70;70.60
73277;DHT22;61501;43.316;5.372;2023-12-22T13:13:05;18.70;70.80
73277;DHT22;61501;43.316;5.372;2023-12-22T13:15:31;18.60;71.20
73277;DHT22;61501;43.316;5.372;2023-12-22T13:17:58;18.40;71.80
73277;DHT22;61501;43.316;5.372;2023-12-22T13:20:24;18.30;71.80
73277;DHT22;61501;43.316;5.372;2023-12-22T13:22:50;18.50;71.40
73277;DHT22;61501;43.316;5.372;2023-12-22T13:25:15;18.50;71.40
73277;DHT22;61501;43.316;5.372;2023-12-22T13:27:48;18.40;72.10
73277;DHT22;61501;43.316;5.372;2023-12-22T13:30:15;19.10;69.50
73277;DHT22;61501;43.316;5.372;2023-12-22T13:32:41;19.00;69.80
73277;DHT22;61501;43.316;5.372;2023-12-22T13:35:07;19.50;66.70
73277;DHT22;61501;43.316;5.372;2023-12-22T13:37:33;18.90;68.50
73277;DHT22;61501;43.316;5.372;2023-12-22T13:39:58;19.60;65.90
73277;DHT22;61501;43.316;5.372;2023-12-22T13:42:25;18.80;67.40
73277;DHT22;61501;43.316;5.372;2023-12-22T13:44:51;19.00;67.10
73277;DHT22;61501;43.316;5.372;2023-12-22T13:47:20;18.90;67.80
73277;DHT22;61501;43.316;5.372;2023-12-22T13:49:46;19.30;67.00
73277;DHT22;61501;43.316;5.372;2023-12-22T13:52:25;19.60;64.60
73277;DHT22;61501;43.316;5.372;2023-12-22T13:54:52;19.70;64.30
73277;DHT22;61501;43.316;5.372;2023-12-22T13:57:21;19.70;64.80
73277;DHT22;61501;43.316;5.372;2023-12-22T13:59:47;20.10;63.40
73277;DHT22;61501;43.316;5.372;2023-12-22T14:02:13;20.20;62.00
73277;DHT22;61501;43.316;5.372;2023-12-22T14:04:38;20.10;63.10
73277;DHT22;61501;43.316;5.372;2023-12-22T14:07:04;19.40;64.60
73277;DHT22;61501;43.316;5.372;2023-12-22T14:09:30;19.50;63.90
73277;DHT22;61501;43.316;5.372;2023-12-22T14:11:59;19.80;63.70
73277;DHT22;61501;43.316;5.372;2023-12-22T14:14:24;19.90;63.30
73277;DHT22;61501;43.316;5.372;2023-12-22T14:16:50;19.90;63.40
73277;DHT22;61501;43.316;5.372;2023-12-22T14:19:15;19.40;65.20
73277;DHT22;61501;43.316;5.372;2023-12-22T14:21:41;19.90;62.50
73277;DHT22;61501;43.316;5.372;2023-12-22T14:24:07;20.30;61.90
73277;DHT22;61501;43.316;5.372;2023-12-22T14:26:33;20.30;61.60
73277;DHT22;61501;43.316;5.372;2023-12-22T14:28:58;19.80;63.00
73277;DHT22;61501;43.316;5.372;2023-12-22T14:31:24;19.70;63.40
73277;DHT22;61501;43.316;5.372;2023-12-22T14:33:50;20.00;63.30
73277;DHT22;61501;43.316;5.372;2023-12-22T14:36:15;19.20;65.00
73277;DHT22;61501;43.316;5.372;2023-12-22T14:38:42;18.00;70.30
73277;DHT22;61501;43.316;5.372;2023-12-22T14:41:08;17.60;71.90
73277;DHT22;61501;43.316;5.372;2023-12-22T14:43:34;17.30;73.20
73277;DHT22;61501;43.316;5.372;2023-12-22T14:45:59;17.00;74.60
73277;DHT22;61501;43.316;5.372;2023-12-22T14:48:25;16.80;76.90
73277;DHT22;61501;43.316;5.372;2023-12-22T14:50:51;16.60;77.90
73277;DHT22;61501;43.316;5.372;2023-12-22T14:53:16;16.60;77.60
73277;DHT22;61501;43.316;5.372;2023-12-22T14:55:42;16.50;79.10
73277;DHT22;61501;43.316;5.372;2023-12-22T14:58:08;16.50;79.70
73277;DHT22;61501;43.316;5.372;2023-12-22T15:00:35;16.40;79.70
73277;DHT22;61501;43.316;5.372;2023-12-22T15:03:01;16.40;79.90
73277;DHT22;61501;43.316;5.372;2023-12-22T15:05:26;16.30;78.60
73277;DHT22;61501;43.316;5.372;2023-12-22T15:07:55;16.30;78.90
73277;DHT22;61501;43.316;5.372;2023-12-22T15:10:21;16.30;79.30
73277;DHT22;61501;43.316;5.372;2023-12-22T15:12:46;16.40;79.30
73277;DHT22;61501;43.316;5.372;2023-12-22T15:15:13;16.60;78.70
73277;DHT22;61501;43.316;5.372;2023-12-22T15:17:39;16.80;76.50
73277;DHT22;61501;43.316;5.372;2023-12-22T15:20:05;16.40;79.00
73277;DHT22;61501;43.316;5.372;2023-12-22T15:22:31;16.20;80.20
73277;DHT22;61501;43.316;5.372;2023-12-22T15:24:57;16.10;80.10
73277;DHT22;61501;43.316;5.372;2023-12-22T15:27:23;16.10;80.80
73277;DHT22;61501;43.316;5.372;2023-12-22T15:29:49;16.10;80.80
73277;DHT22;61501;43.316;5.372;2023-12-22T15:32:15;16.00;81.60
73277;DHT22;61501;43.316;5.372;2023-12-22T15:34:42;16.00;81.60
73277;DHT22;61501;43.316;5.372;2023-12-22T15:37:08;16.10;81.40